Clementsville, Kentucky
Current Conditions -  °F | °C
As of 5:15 AM on Thursday 29 Jan 2015 (Local Time) from KDVK Reporting Station
Scattered Clouds Scattered Clouds  
Wind Chill: 28°   Ceiling: Unl
Heat Index: 36°   Visibility: 10mi
Dew Point: 19°   Wind: 10mph
Humidity: 52%   Direction: 190°S
Pressure: 30.04"   Gusts: NA
Location:  37.3141°N, 84.9882°W
Report Text: KDVK 291015Z AUTO 19009KT 10SM SCT095 02/M07 A3004 RMK AO2
Loading
Personal Weather Stations






























Interactive Weather Map New forecast layout! Learn more

10-Day Weather Forecast

Advertisements
Track Severe Weather on mobile